Time;durP1;ratioP1;P1;durP2;ratioP2;P2;SDS_P1;SDS_P2;PMS_P1;PMS_P2;Temp;Humidity;BMP_temperature;BMP_pressure;BME280_temperature;BME280_humidity;BME280_pressure;Samples;Min_cycle;Max_cycle;Signal;HPM_P1;HPM_P2
2023/06/14 00:02:38;;;;;;;5.90;2.47;;;;;;;;;;4784806;29;20073;-83
2023/06/14 00:05:18;;;;;;;3.22;1.88;;;;;;;;;;4732052;30;24127;-83
2023/06/14 00:11:37;;;;;;;5.53;2.17;;;;;;;;;;4718364;30;21195;-83
2023/06/14 00:20:46;;;;;;;6.22;2.50;;;;;;;;;;5339277;24;20119;-83
2023/06/14 00:23:24;;;;;;;5.55;2.17;;;;;;;;;;4796477;29;20055;-83
2023/06/14 00:30:07;;;;;;;6.60;1.85;;;;;;;;;;4759971;29;20075;-83
2023/06/14 00:39:24;;;;;;;;;;;;;;;;;;;;;
2023/06/14 00:41:53;;;;;;;4.95;2.17;;;;;;;;;;4769985;29;20111;-83
2023/06/14 00:44:53;;;;;;;4.30;2.10;;;;;;;;;;4772298;29;20672;-83
2023/06/14 00:50:23;;;;;;;4.20;2.10;;;;;;;;;;5161770;23;20062;-83
2023/06/14 01:10:51;;;;;;;6.25;2.28;;;;;;;;;;4655558;30;20061;-83
2023/06/14 01:13:59;;;;;;;3.42;2.05;;;;;;;;;;4648770;30;20384;-83
2023/06/14 01:16:55;;;;;;;4.47;2.33;;;;;;;;;;4699550;29;20873;-83
2023/06/14 01:20:19;;;;;;;;;;;;;;;;;;;;;
2023/06/14 01:23:23;;;;;;;;;;;;;;;;;;;;;
2023/06/14 01:47:39;;;;;;;;;;;;;;;;;;;;;
2023/06/14 01:50:43;;;;;;;3.45;2.25;;;;;;;;;;4608074;30;20063;-83
2023/06/14 01:53:54;;;;;;;4.57;2.10;;;;;;;;;;4596327;30;20145;-83
2023/06/14 01:57:01;;;;;;;;;;;;;;;;;;;;;
2023/06/14 01:59:49;;;;;;;5.00;2.50;;;;;;;;;;4642864;30;20448;-83
2023/06/14 02:06:04;;;;;;;3.75;2.40;;;;;;;;;;4636705;30;20570;-83
2023/06/14 02:08:32;;;;;;;3.20;2.20;;;;;;;;;;4639218;30;20456;-83
2023/06/14 02:11:11;;;;;;;;;;;;;;;;;;;;;
2023/06/14 02:13:46;;;;;;;2.40;1.75;;;;;;;;;;4750183;29;20134;-83
2023/06/14 02:16:27;;;;;;;2.10;1.90;;;;;;;;;;4783524;29;20054;-83
2023/06/14 02:18:59;;;;;;;4.90;2.28;;;;;;;;;;4773656;29;20055;-83
2023/06/14 02:21:43;;;;;;;4.28;2.05;;;;;;;;;;4737534;29;20050;-83
2023/06/14 02:27:51;;;;;;;5.18;1.70;;;;;;;;;;4673807;30;20068;-83
2023/06/14 02:30:32;;;;;;;4.43;1.95;;;;;;;;;;4711873;30;20110;-83
2023/06/14 02:33:35;;;;;;;5.05;2.10;;;;;;;;;;4738521;29;20047;-83
2023/06/14 02:39:51;;;;;;;3.38;2.10;;;;;;;;;;4751264;30;20052;-83
2023/06/14 02:47:37;;;;;;;3.78;2.10;;;;;;;;;;5038209;24;21478;-83
2023/06/14 02:50:08;;;;;;;2.97;2.10;;;;;;;;;;4741584;29;20051;-83
2023/06/14 03:12:41;;;;;;;3.10;2.25;;;;;;;;;;923867;27;21006;-83
2023/06/14 03:18:46;;;;;;;3.55;2.42;;;;;;;;;;4762035;29;20508;-83
2023/06/14 03:21:28;;;;;;;3.95;2.60;;;;;;;;;;4749876;29;20154;-83
2023/06/14 03:24:05;;;;;;;6.15;2.22;;;;;;;;;;4732640;29;20788;-83
2023/06/14 03:27:00;;;;;;;4.07;2.83;;;;;;;;;;4736940;29;20061;-83
2023/06/14 03:30:06;;;;;;;;;;;;;;;;;;;;;
2023/06/14 03:36:23;;;;;;;2.95;2.50;;;;;;;;;;4780377;29;20134;-83
2023/06/14 03:39:13;;;;;;;5.63;2.58;;;;;;;;;;4750616;29;20524;-83
2023/06/14 03:41:48;;;;;;;4.43;2.28;;;;;;;;;;4789915;29;20052;-83
2023/06/14 03:44:45;;;;;;;6.93;2.50;;;;;;;;;;4820264;29;20049;-83
2023/06/14 03:47:17;;;;;;;5.38;2.72;;;;;;;;;;4774978;29;20111;-83
2023/06/14 03:49:49;;;;;;;3.78;2.53;;;;;;;;;;4812088;29;20672;-83
2023/06/14 03:52:34;;;;;;;5.15;2.85;;;;;;;;;;4813715;29;20125;-83
2023/06/14 03:55:20;;;;;;;6.97;3.00;;;;;;;;;;4835401;29;20169;-83
2023/06/14 04:01:18;;;;;;;2.63;2.13;;;;;;;;;;4721793;30;20364;-83
2023/06/14 04:03:47;;;;;;;8.10;3.00;;;;;;;;;;4783894;29;20065;-83
2023/06/14 04:06:19;;;;;;;4.28;2.58;;;;;;;;;;4772249;29;20046;-83
2023/06/14 04:09:02;;;;;;;8.07;2.95;;;;;;;;;;4784053;29;20101;-83
2023/06/14 04:12:20;;;;;;;5.45;2.63;;;;;;;;;;4784771;29;20582;-83
2023/06/14 04:15:41;;;;;;;3.63;2.78;;;;;;;;;;4696031;30;20053;-83
2023/06/14 04:18:11;;;;;;;5.22;2.92;;;;;;;;;;4703282;30;20120;-84
2023/06/14 04:20:57;;;;;;;4.57;2.85;;;;;;;;;;4681208;30;20064;-83
2023/06/14 04:23:35;;;;;;;5.00;3.53;;;;;;;;;;4698525;30;20057;-83
2023/06/14 04:29:31;;;;;;;3.20;2.90;;;;;;;;;;4688565;30;20384;-83
2023/06/14 04:35:37;;;;;;;4.95;3.20;;;;;;;;;;4717601;29;20581;-83
2023/06/14 04:38:09;;;;;;;5.72;3.33;;;;;;;;;;4779260;29;20046;-83
2023/06/14 04:41:12;;;;;;;;;;;;;;;;;;;;;
2023/06/14 04:44:29;;;;;;;7.80;3.05;;;;;;;;;;4773213;29;20544;-83
2023/06/14 04:47:42;;;;;;;6.50;3.45;;;;;;;;;;4760973;29;20040;-84
2023/06/14 05:01:06;;;;;;;;;;;;;;;;;;;;;
2023/06/14 05:10:27;;;;;;;6.55;3.05;;;;;;;;;;4709169;30;20057;-83
2023/06/14 05:13:27;;;;;;;4.93;3.40;;;;;;;;;;4663965;30;20053;-83
2023/06/14 05:20:19;;;;;;;3.97;3.33;;;;;;;;;;4652362;30;20745;-86
2023/06/14 05:26:53;;;;;;;4.18;3.30;;;;;;;;;;4659819;30;20065;-85
2023/06/14 06:13:57;;;;;;;;;;;;;;;;;;;;;
2023/06/14 06:36:35;;;;;;;5.80;2.95;;;;;;;;;;5278660;24;20496;-84
2023/06/14 06:39:43;;;;;;;7.43;3.55;;;;;;;;;;4758248;29;20664;-84
2023/06/14 06:42:28;;;;;;;5.85;2.97;;;;;;;;;;4746863;29;20054;-84
2023/06/14 06:47:52;;;;;;;3.90;2.60;;;;;;;;;;5211135;23;20059;-84
2023/06/14 06:50:31;;;;;;;4.70;2.47;;;;;;;;;;4774325;29;20050;-85
2023/06/14 06:53:24;;;;;;;;;;;;;;;;;;;;;
2023/06/14 07:36:26;;;;;;;5.07;2.33;;;;;;;;;;5177443;23;20142;-84
2023/06/14 07:39:19;;;;;;;3.65;2.00;;;;;;;;;;4775662;29;20490;-84
2023/06/14 08:07:02;;;;;;;5.47;2.05;;;;;;;;;;4999668;24;20081;-86
2023/06/14 08:10:17;;;;;;;;;;;;;;;;;;;;;
2023/06/14 08:21:12;;;;;;;;;;;;;;;;;;;;;
2023/06/14 08:29:14;;;;;;;3.80;1.85;;;;;;;;;;5140066;24;20443;-86
2023/06/14 08:42:00;;;;;;;2.72;1.85;;;;;;;;;;4780996;29;20046;-86
2023/06/14 09:00:44;;;;;;;;;;;;;;;;;;;;;
2023/06/14 09:17:05;;;;;;;3.22;2.05;;;;;;;;;;4681951;30;20966;-86
2023/06/14 09:40:19;;;;;;;7.40;2.50;;;;;;;;;;4669998;30;20413;-86
2023/06/14 09:59:26;;;;;;;4.88;1.35;;;;;;;;;;4784800;29;20429;-86
2023/06/14 10:19:34;;;;;;;3.85;1.40;;;;;;;;;;4659013;30;20506;-86
2023/06/14 10:22:48;;;;;;;2.47;1.40;;;;;;;;;;4718995;30;20155;-86
2023/06/14 10:25:55;;;;;;;3.30;1.20;;;;;;;;;;4781460;29;20177;-86
2023/06/14 10:32:03;;;;;;;3.83;1.42;;;;;;;;;;4712831;30;20488;-86
2023/06/14 10:34:35;;;;;;;2.65;1.33;;;;;;;;;;4688877;30;20061;-86
2023/06/14 10:37:19;;;;;;;2.42;1.30;;;;;;;;;;4686150;30;20049;-86
2023/06/14 10:40:18;;;;;;;3.08;1.20;;;;;;;;;;4720571;29;20145;-86
2023/06/14 10:42:59;;;;;;;4.00;1.50;;;;;;;;;;4747593;29;20186;-86
2023/06/14 10:45:36;;;;;;;3.97;1.23;;;;;;;;;;4763885;29;20046;-86
2023/06/14 10:48:45;;;;;;;5.15;1.50;;;;;;;;;;4743447;30;20059;-86
2023/06/14 10:55:22;;;;;;;1.40;1.17;;;;;;;;;;4769904;29;20087;-86
2023/06/14 10:58:00;;;;;;;3.83;2.00;;;;;;;;;;4748486;30;20545;-87
2023/06/14 11:01:02;;;;;;;1.58;1.40;;;;;;;;;;4736704;30;20420;-86
2023/06/14 11:06:55;;;;;;;3.03;1.30;;;;;;;;;;4705331;30;20060;-87
2023/06/14 11:09:45;;;;;;;4.23;1.20;;;;;;;;;;4707807;30;20048;-86
2023/06/14 11:12:39;;;;;;;2.53;1.10;;;;;;;;;;4716423;30;20048;-86
2023/06/14 11:15:16;;;;;;;2.38;1.25;;;;;;;;;;4719700;30;20087;-86
2023/06/14 11:18:09;;;;;;;1.15;1.05;;;;;;;;;;4733446;30;20146;-86
2023/06/14 11:24:26;;;;;;;3.20;1.27;;;;;;;;;;4712817;30;20052;-85
2023/06/14 11:33:56;;;;;;;;;;;;;;;;;;;;;
2023/06/14 11:36:42;;;;;;;1.58;1.27;;;;;;;;;;4757891;29;20174;-86
2023/06/14 11:39:43;;;;;;;3.33;1.17;;;;;;;;;;4731465;30;20465;-86
2023/06/14 11:42:46;;;;;;;;;;;;;;;;;;;;;
2023/06/14 11:45:45;;;;;;;;;;;;;;;;;;;;;
2023/06/14 11:48:20;;;;;;;3.58;1.40;;;;;;;;;;4729335;30;20091;-87
2023/06/14 11:51:14;;;;;;;2.10;1.67;;;;;;;;;;4692395;30;20474;-86
2023/06/14 11:53:43;;;;;;;5.55;1.60;;;;;;;;;;4713327;30;20052;-86
2023/06/14 11:56:15;;;;;;;3.10;1.27;;;;;;;;;;4697724;30;20044;-86
2023/06/14 11:58:56;;;;;;;2.28;1.20;;;;;;;;;;4712118;30;20464;-86
2023/06/14 12:01:45;;;;;;;6.15;1.45;;;;;;;;;;4731973;29;20156;-86
2023/06/14 12:04:27;;;;;;;3.90;1.23;;;;;;;;;;4749040;30;20055;-87
2023/06/14 12:10:28;;;;;;;2.63;1.40;;;;;;;;;;4732461;30;20052;-86
2023/06/14 12:13:45;;;;;;;2.92;1.40;;;;;;;;;;4705680;29;20404;-87
2023/06/14 12:16:32;;;;;;;1.58;1.15;;;;;;;;;;4687316;30;20493;-86
2023/06/14 12:19:15;;;;;;;1.92;1.20;;;;;;;;;;4674712;30;22414;-86
2023/06/14 12:22:14;;;;;;;;;;;;;;;;;;;;;
2023/06/14 12:24:57;;;;;;;1.60;1.50;;;;;;;;;;4681359;30;20180;-86
2023/06/14 12:30:46;;;;;;;;;;;;;;;;;;;;;
2023/06/14 12:36:46;;;;;;;;;;;;;;;;;;;;;
2023/06/14 12:42:45;;;;;;;1.88;1.45;;;;;;;;;;4742924;30;20137;-88
2023/06/14 12:45:51;;;;;;;2.35;1.40;;;;;;;;;;4780786;29;20062;-88
2023/06/14 12:48:45;;;;;;;2.28;1.30;;;;;;;;;;4765884;29;20050;-88
2023/06/14 12:54:25;;;;;;;3.05;1.30;;;;;;;;;;4769513;29;20050;-88
2023/06/14 12:57:23;;;;;;;2.80;1.30;;;;;;;;;;4744153;29;20067;-88
2023/06/14 13:00:29;;;;;;;;;;;;;;;;;;;;;
2023/06/14 13:03:37;;;;;;;;;;;;;;;;;;;;;
2023/06/14 13:10:14;;;;;;;4.18;1.50;;;;;;;;;;4697874;30;20064;-88
2023/06/14 13:13:19;;;;;;;;;;;;;;;;;;;;;
2023/06/14 13:16:21;;;;;;;1.30;1.20;;;;;;;;;;4701062;30;20055;-88
2023/06/14 13:19:44;;;;;;;;;;;;;;;;;;;;;
2023/06/14 13:36:43;;;;;;;2.75;1.45;;;;;;;;;;4799696;29;20107;-87
2023/06/14 13:39:55;;;;;;;4.10;1.30;;;;;;;;;;4776607;29;20058;-88
2023/06/14 13:42:27;;;;;;;1.75;1.38;;;;;;;;;;4755568;29;20173;-88
2023/06/14 13:45:28;;;;;;;2.85;1.60;;;;;;;;;;4762371;29;20084;-91
2023/06/14 13:48:51;;;;;;;1.48;1.30;;;;;;;;;;4888301;24;20070;-86
2023/06/14 14:06:20;;;;;;;1.98;1.33;;;;;;;;;;4944155;24;20476;-87
2023/06/14 14:09:20;;;;;;;3.25;1.52;;;;;;;;;;4805479;29;20039;-87
2023/06/14 14:12:25;;;;;;;3.38;1.60;;;;;;;;;;4768911;29;20455;-87
2023/06/14 14:15:03;;;;;;;;;;;;;;;;;;;;;
2023/06/14 14:17:57;;;;;;;4.18;1.50;;;;;;;;;;4789392;29;20095;-86
2023/06/14 14:21:17;;;;;;;2.60;1.30;;;;;;;;;;4781543;29;20109;-87
2023/06/14 14:24:06;;;;;;;1.58;1.40;;;;;;;;;;4782932;29;20103;-87
2023/06/14 14:27:05;;;;;;;2.50;1.53;;;;;;;;;;4765581;29;20425;-87
2023/06/14 14:30:13;;;;;;;3.67;1.52;;;;;;;;;;4767051;29;21621;-87
2023/06/14 14:36:07;;;;;;;;;;;;;;;;;;;;;
2023/06/14 14:56:45;;;;;;;;;;;;;;;;;;;;;
2023/06/14 15:03:02;;;;;;;2.90;1.58;;;;;;;;;;4705943;30;20544;-85
2023/06/14 15:06:14;;;;;;;2.20;1.77;;;;;;;;;;4669323;30;20049;-85
2023/06/14 15:12:10;;;;;;;1.90;1.38;;;;;;;;;;4643539;30;20450;-88
2023/06/14 15:18:33;;;;;;;3.20;1.67;;;;;;;;;;4696460;30;20209;-85
2023/06/14 15:21:22;;;;;;;;;;;;;;;;;;;;;
2023/06/14 15:24:00;;;;;;;3.08;1.80;;;;;;;;;;4724170;30;20056;-90
2023/06/14 15:26:29;;;;;;;1.67;1.58;;;;;;;;;;4716858;30;20062;-87
2023/06/14 15:29:11;;;;;;;1.83;1.50;;;;;;;;;;4731762;30;20044;-88
2023/06/14 15:31:54;;;;;;;1.60;1.50;;;;;;;;;;4736784;29;20065;-89
2023/06/14 15:34:23;;;;;;;2.25;1.77;;;;;;;;;;4758348;29;20055;-88
2023/06/14 15:36:57;;;;;;;4.15;2.00;;;;;;;;;;4767852;29;20084;-89
2023/06/14 15:39:34;;;;;;;4.55;1.75;;;;;;;;;;4762623;29;20138;-89
2023/06/14 15:42:16;;;;;;;3.80;1.83;;;;;;;;;;4786308;29;20552;-89
2023/06/14 15:44:56;;;;;;;1.98;1.77;;;;;;;;;;4761940;29;20046;-88
2023/06/14 15:47:35;;;;;;;3.55;2.10;;;;;;;;;;4776098;29;20129;-88
2023/06/14 15:50:27;;;;;;;2.97;2.00;;;;;;;;;;4768347;29;20714;-89
2023/06/14 15:52:58;;;;;;;2.50;2.00;;;;;;;;;;4788550;29;20062;-88
2023/06/14 15:55:32;;;;;;;2.55;2.17;;;;;;;;;;4772553;29;20403;-88
2023/06/14 15:57:58;;;;;;;3.13;1.98;;;;;;;;;;4764631;29;20050;-89
2023/06/14 16:00:43;;;;;;;1.90;1.67;;;;;;;;;;4754249;29;20141;-89
2023/06/14 16:03:21;;;;;;;2.35;2.03;;;;;;;;;;4769535;29;20592;-88
2023/06/14 16:05:57;;;;;;;;;;;;;;;;;;;;;
2023/06/14 16:08:42;;;;;;;2.15;1.95;;;;;;;;;;4787753;29;19928;-89
2023/06/14 16:11:08;;;;;;;2.28;1.70;;;;;;;;;;4771825;29;20491;-82
2023/06/14 16:13:46;;;;;;;4.03;2.00;;;;;;;;;;4770404;29;20047;-82
2023/06/14 16:16:30;;;;;;;2.72;1.90;;;;;;;;;;4751892;29;20115;-82
2023/06/14 16:19:00;;;;;;;2.67;2.15;;;;;;;;;;4767325;29;20168;-82
2023/06/14 16:25:07;;;;;;;;;;;;;;;;;;;;;
2023/06/14 16:30:53;;;;;;;2.20;2.00;;;;;;;;;;4710994;30;20052;-82
2023/06/14 16:33:40;;;;;;;3.20;2.00;;;;;;;;;;4737104;30;20075;-82
2023/06/14 16:36:12;;;;;;;3.33;1.95;;;;;;;;;;4707815;30;20052;-82
2023/06/14 16:38:41;;;;;;;2.20;2.00;;;;;;;;;;4734424;30;20131;-82
2023/06/14 16:54:28;;;;;;;2.13;1.92;;;;;;;;;;4808569;29;20061;-83
2023/06/14 16:57:25;;;;;;;;;;;;;;;;;;;;;
2023/06/14 17:04:10;;;;;;;2.88;2.10;;;;;;;;;;4730124;30;20044;-83
2023/06/14 17:10:41;;;;;;;2.47;2.25;;;;;;;;;;4783716;29;20912;-84
2023/06/14 17:13:40;;;;;;;4.80;2.33;;;;;;;;;;4768289;29;20058;-83
2023/06/14 17:16:12;;;;;;;3.45;2.30;;;;;;;;;;4791495;29;20057;-83
2023/06/14 17:25:35;;;;;;;4.70;2.70;;;;;;;;;;4784133;29;21552;-83
2023/06/14 17:28:19;;;;;;;4.00;2.30;;;;;;;;;;4797662;29;20050;-82
2023/06/14 17:30:45;;;;;;;2.65;2.17;;;;;;;;;;4780896;29;20050;-82
2023/06/14 17:40:22;;;;;;;3.75;2.38;;;;;;;;;;4664324;30;20064;-83
2023/06/14 17:43:28;;;;;;;2.90;2.13;;;;;;;;;;4726153;30;20063;-83
2023/06/14 17:45:59;;;;;;;2.90;2.50;;;;;;;;;;4791273;29;20088;-83
2023/06/14 17:48:26;;;;;;;4.68;2.65;;;;;;;;;;4784062;29;20053;-83
2023/06/14 17:50:55;;;;;;;3.72;2.50;;;;;;;;;;4785400;29;20034;-83
2023/06/14 17:53:26;;;;;;;3.25;2.50;;;;;;;;;;4779312;29;20517;-83
2023/06/14 17:55:54;;;;;;;4.40;2.50;;;;;;;;;;4766845;29;20189;-82
2023/06/14 17:58:23;;;;;;;3.20;2.55;;;;;;;;;;4796653;29;20038;-83
2023/06/14 18:00:54;;;;;;;2.70;2.38;;;;;;;;;;4785411;29;20049;-83
2023/06/14 18:09:40;;;;;;;;;;;;;;;;;;;;;
2023/06/14 18:12:33;;;;;;;3.10;2.78;;;;;;;;;;4740155;30;20060;-82
2023/06/14 18:15:05;;;;;;;3.60;2.30;;;;;;;;;;4721723;29;21991;-83
2023/06/14 18:17:34;;;;;;;4.60;2.60;;;;;;;;;;4789704;29;20102;-83
2023/06/14 18:20:31;;;;;;;5.35;2.70;;;;;;;;;;4770063;29;20148;-84
2023/06/14 18:23:42;;;;;;;4.70;2.50;;;;;;;;;;4793283;29;20060;-84
2023/06/14 18:26:50;;;;;;;;;;;;;;;;;;;;;
2023/06/14 18:29:33;;;;;;;5.38;2.55;;;;;;;;;;4793831;29;20038;-83
2023/06/14 18:32:02;;;;;;;6.15;2.28;;;;;;;;;;4783239;29;21180;-82
2023/06/14 18:34:33;;;;;;;4.53;2.55;;;;;;;;;;4774897;29;20053;-83
2023/06/14 18:37:25;;;;;;;4.72;2.50;;;;;;;;;;4768504;29;21913;-82
2023/06/14 18:39:56;;;;;;;6.63;2.75;;;;;;;;;;4759214;29;20118;-83
2023/06/14 18:42:32;;;;;;;3.47;2.20;;;;;;;;;;4746770;29;20514;-83
2023/06/14 18:45:01;;;;;;;4.28;2.28;;;;;;;;;;4740117;29;20207;-83
2023/06/14 18:47:29;;;;;;;3.45;2.17;;;;;;;;;;4765537;29;20051;-83
2023/06/14 18:49:59;;;;;;;2.58;2.20;;;;;;;;;;4762179;29;20138;-82
2023/06/14 18:52:25;;;;;;;6.43;2.50;;;;;;;;;;4731349;29;20100;-83
2023/06/14 18:55:07;;;;;;;10.00;2.50;;;;;;;;;;4761386;29;20063;-85
2023/06/14 18:57:35;;;;;;;8.82;2.55;;;;;;;;;;4713222;30;20132;-82
2023/06/14 19:00:04;;;;;;;4.80;2.60;;;;;;;;;;4717356;30;20162;-83
2023/06/14 19:02:31;;;;;;;5.13;2.65;;;;;;;;;;4698948;30;20063;-82
2023/06/14 19:04:57;;;;;;;4.68;2.78;;;;;;;;;;4724084;30;20114;-81
2023/06/14 19:07:23;;;;;;;4.95;2.70;;;;;;;;;;4737345;30;20051;-83
2023/06/14 19:10:01;;;;;;;7.80;2.70;;;;;;;;;;4729413;29;20181;-81
2023/06/14 19:12:27;;;;;;;4.75;2.65;;;;;;;;;;4720426;30;20143;-81
2023/06/14 19:15:16;;;;;;;5.28;2.45;;;;;;;;;;4698741;30;20090;-82
2023/06/14 19:17:42;;;;;;;6.40;2.67;;;;;;;;;;4733972;30;20146;-87
2023/06/14 19:20:13;;;;;;;4.78;2.70;;;;;;;;;;4719685;30;20046;-87
2023/06/14 19:22:54;;;;;;;4.60;2.60;;;;;;;;;;4714493;29;20087;-87
2023/06/14 19:25:20;;;;;;;3.42;2.45;;;;;;;;;;4738388;29;20051;-87
2023/06/14 19:27:52;;;;;;;5.55;2.67;;;;;;;;;;4773680;29;20054;-86
2023/06/14 19:30:21;;;;;;;4.63;2.58;;;;;;;;;;4793530;29;20535;-87
2023/06/14 19:33:18;;;;;;;;;;;;;;;;;;;;;
2023/06/14 19:36:48;;;;;;;4.63;2.38;;;;;;;;;;4827587;29;20337;-88
2023/06/14 19:42:23;;;;;;;4.20;2.55;;;;;;;;;;4711997;29;20055;-86
2023/06/14 19:44:49;;;;;;;6.60;2.38;;;;;;;;;;4766837;29;22019;-87
2023/06/14 19:47:18;;;;;;;2.97;2.50;;;;;;;;;;4775061;29;20074;-87
2023/06/14 19:49:50;;;;;;;7.13;2.40;;;;;;;;;;4781133;29;20202;-86
2023/06/14 19:52:16;;;;;;;3.90;2.97;;;;;;;;;;4761058;29;20050;-87
2023/06/14 19:54:42;;;;;;;3.70;2.20;;;;;;;;;;4764918;29;20059;-86
2023/06/14 19:57:08;;;;;;;2.80;2.35;;;;;;;;;;4754965;29;20039;-86
2023/06/14 19:59:34;;;;;;;2.35;1.92;;;;;;;;;;4792494;29;20511;-87
2023/06/14 20:02:00;;;;;;;5.32;2.58;;;;;;;;;;4749398;29;20092;-86
2023/06/14 20:04:30;;;;;;;5.05;2.42;;;;;;;;;;4759864;29;20533;-87
2023/06/14 20:06:58;;;;;;;4.13;2.40;;;;;;;;;;4755736;29;20432;-89
2023/06/14 20:09:31;;;;;;;5.22;2.33;;;;;;;;;;4735923;29;20056;-88
2023/06/14 20:11:57;;;;;;;4.57;2.53;;;;;;;;;;4784808;29;20049;-88
2023/06/14 20:14:27;;;;;;;4.68;2.45;;;;;;;;;;4768620;29;20096;-88
2023/06/14 20:16:53;;;;;;;5.60;2.20;;;;;;;;;;4783558;29;20717;-89
2023/06/14 20:19:22;;;;;;;6.78;2.72;;;;;;;;;;4769472;29;20442;-88
2023/06/14 20:21:49;;;;;;;4.47;2.22;;;;;;;;;;4795873;29;20046;-88
2023/06/14 20:24:18;;;;;;;2.80;2.58;;;;;;;;;;4771372;29;20049;-87
2023/06/14 20:26:46;;;;;;;5.63;2.50;;;;;;;;;;4771101;29;20050;-87
2023/06/14 20:29:16;;;;;;;3.33;2.22;;;;;;;;;;4788489;29;20058;-88
2023/06/14 20:31:42;;;;;;;4.07;2.20;;;;;;;;;;4769479;29;20698;-87
2023/06/14 20:34:09;;;;;;;5.97;2.50;;;;;;;;;;4797669;29;20049;-87
2023/06/14 20:36:42;;;;;;;4.20;2.30;;;;;;;;;;4771906;29;20050;-87
2023/06/14 20:39:12;;;;;;;3.08;2.42;;;;;;;;;;4771200;29;20414;-87
2023/06/14 20:42:12;;;;;;;7.30;2.70;;;;;;;;;;4766463;29;20540;-83
2023/06/14 20:44:43;;;;;;;3.85;2.22;;;;;;;;;;4761244;29;20061;-83
2023/06/14 20:47:15;;;;;;;3.55;2.22;;;;;;;;;;4787147;29;20056;-83
2023/06/14 20:50:11;;;;;;;3.75;2.13;;;;;;;;;;4794326;29;20068;-83
2023/06/14 20:53:00;;;;;;;7.35;2.80;;;;;;;;;;4816934;29;20183;-83
2023/06/14 20:56:23;;;;;;;6.18;2.55;;;;;;;;;;4742480;30;20055;-83
2023/06/14 20:59:08;;;;;;;3.55;2.20;;;;;;;;;;4777654;29;20507;-84
2023/06/14 21:02:30;;;;;;;5.00;2.40;;;;;;;;;;4801311;29;20112;-83
2023/06/14 21:08:49;;;;;;;4.53;2.45;;;;;;;;;;4753713;30;20043;-83
2023/06/14 21:11:46;;;;;;;6.53;2.33;;;;;;;;;;4739198;30;20488;-83
2023/06/14 21:14:47;;;;;;;3.05;2.53;;;;;;;;;;4741749;30;20082;-83
2023/06/14 21:17:58;;;;;;;3.93;1.97;;;;;;;;;;4739201;30;20047;-83
2023/06/14 21:24:16;;;;;;;5.82;2.28;;;;;;;;;;4744353;29;20134;-83
2023/06/14 21:30:09;;;;;;;;;;;;;;;;;;;;;
2023/06/14 21:33:04;;;;;;;4.38;2.30;;;;;;;;;;4722321;30;20068;-83
2023/06/14 21:36:13;;;;;;;3.45;2.53;;;;;;;;;;4729246;30;20437;-83
2023/06/14 21:39:05;;;;;;;4.38;2.38;;;;;;;;;;4716345;30;20064;-83
2023/06/14 21:41:39;;;;;;;5.20;2.20;;;;;;;;;;4673705;30;20079;-83
2023/06/14 21:44:35;;;;;;;4.18;2.70;;;;;;;;;;4675087;30;20065;-83
2023/06/14 21:47:46;;;;;;;2.40;2.00;;;;;;;;;;4665631;30;20666;-83
2023/06/14 21:50:41;;;;;;;5.30;2.10;;;;;;;;;;4678028;30;20147;-83
2023/06/14 21:53:31;;;;;;;3.47;2.28;;;;;;;;;;4679627;30;20055;-83
2023/06/14 22:03:17;;;;;;;7.90;2.40;;;;;;;;;;4632618;30;20126;-83
2023/06/14 22:05:49;;;;;;;4.10;2.50;;;;;;;;;;4658045;30;20289;-84
2023/06/14 22:08:29;;;;;;;4.95;2.55;;;;;;;;;;4654380;30;20153;-83
2023/06/14 22:11:12;;;;;;;5.00;2.38;;;;;;;;;;4678836;30;20049;-83
2023/06/14 22:17:04;;;;;;;;;;;;;;;;;;;;;
2023/06/14 22:19:54;;;;;;;4.47;2.25;;;;;;;;;;4739512;29;20051;-83
2023/06/14 22:22:53;;;;;;;5.57;2.50;;;;;;;;;;4734186;30;20078;-83
2023/06/14 22:25:34;;;;;;;4.20;2.25;;;;;;;;;;4729014;30;20056;-83
2023/06/14 22:32:16;;;;;;;5.07;2.50;;;;;;;;;;4710430;30;21043;-84
2023/06/14 22:34:31;;;;;;;3.70;2.30;;;;;;;;;;4711690;30;20513;-84
2023/06/14 22:37:35;;;;;;;2.70;2.25;;;;;;;;;;4713036;30;20040;-83
2023/06/14 22:40:17;;;;;;;3.92;2.45;;;;;;;;;;4713574;30;20060;-83
2023/06/14 22:43:13;;;;;;;4.60;2.75;;;;;;;;;;4705366;30;20049;-84
2023/06/14 22:45:51;;;;;;;3.03;1.95;;;;;;;;;;4698290;30;20204;-84
2023/06/14 22:48:59;;;;;;;;;;;;;;;;;;;;;
2023/06/14 22:51:34;;;;;;;3.45;2.22;;;;;;;;;;4675672;30;20058;-83
2023/06/14 22:57:16;;;;;;;3.65;2.33;;;;;;;;;;4719990;30;20052;-84
2023/06/14 22:59:51;;;;;;;2.72;2.05;;;;;;;;;;4702233;30;20077;-84
2023/06/14 23:02:41;;;;;;;2.53;2.10;;;;;;;;;;4696374;30;20059;-83
2023/06/14 23:09:10;;;;;;;3.25;2.40;;;;;;;;;;4650403;30;20045;-83
2023/06/14 23:11:51;;;;;;;4.40;2.17;;;;;;;;;;4698120;30;20053;-83
2023/06/14 23:21:36;;;;;;;;;;;;;;;;;;;;;
2023/06/14 23:24:34;;;;;;;6.97;2.45;;;;;;;;;;4764065;29;20140;-84
2023/06/14 23:32:34;;;;;;;6.75;2.58;;;;;;;;;;5572060;24;20050;-83
2023/06/14 23:39:26;;;;;;;5.10;2.63;;;;;;;;;;4705776;30;20092;-83
2023/06/14 23:51:18;;;;;;;5.75;2.83;;;;;;;;;;4790740;29;20167;-83
2023/06/14 23:54:14;;;;;;;4.63;2.42;;;;;;;;;;4771930;29;20074;-83
2023/06/14 23:57:02;;;;;;;;;;;;;;;;;;;;;
2023/06/14 23:59:52;;;;;;;3.72;2.40;;;;;;;;;;4818972;29;19980;-83
